Aviation Digital Data Service (ADDS)

Output produced by METARs form (0302 UTC 18 August 2017)
found at http://www.aviationweather.gov/adds/metars/
 
DAUA 180200Z 06008KT 8000 NSC 33/M04 Q1009
TAF DAUA 172300Z 1800/1824 06012KT 8000 FEW046 
     PROB40 1800/1806 3000 HZ 
     BECMG 1804/1808 14014KT 
     PROB30 
     TEMPO 1808/1812 14015G25KT 5000 DRSA 
     BECMG 1815/1818 04015KT
       
DABB 180200Z 23004KT 8000 FEW023 23/21 Q1015
TAF DABB 172300Z 1800/1824 32008KT 9999 FEW023 
     PROB30 
     TEMPO 1800/1806 3000 BR FEW008 
     PROB30 
     TEMPO 1811/1819 FEW30TCU SCT100
       
DABT 180200Z 00000KT CAVOK 19/18 Q1021
TAF DABT 172300Z 1800/1824 33010KT 9999 FEW026 
     TEMPO 1809/1821 FEW030TCU SCT100 
     PROB30 
     TEMPO 1809/1817 5000 -TSRA FEW023CB BKN030
       
DAOR 180200Z 00000KT 5000 FEW030CB BKN033 37/06 Q1018
TAF DAOR 180200Z 1803/1812 03008KT 6000 BKN033 
     TEMPO 1803/1808 3000 DU FEW030CB SCT033TCU 
     BECMG 1808/1811 14012KT
       
DAAE 180200Z 19004KT 7000 FEW016 SCT020 24/23 Q1016
TAF DAAE 172300Z 1800/1824 16008KT 6000 SCT020 
     PROB40 
     TEMPO 1800/1806 FEW020TCU SCT030 
     PROB30 
     TEMPO 1800/1805 5000 -TSRA FEW026CB FEW030 
     PROB30 
     TEMPO 1800/1806 VRB02KT 3000 BR FEW008 
     BECMG 1807/1809 30010KT
       
DAUB 180200Z 09005KT 9999 SCT040 31/16 Q1015
TAF DAUB 172300Z 1800/1824 22008KT 9999 SCT040 SCT100 
     BECMG 1807/1809 13008KT 
     PROB40 
     TEMPO 1809/1821 FEW030TCU SCT100 
     PROB30 
     TEMPO 1809/1817 5000 -TSRA FEW023CB BKN030
       
DAOI 180200Z 00000KT CAVOK 26/22 Q1016
TAF DAOI 172300Z 1800/1824 VRB02KT CAVOK 
     PROB30 
     TEMPO 1804/1809 4000 BR NSC 
     BECMG 1812/1814 35012KT
       
DABC 180230Z 00000KT 9999 FEW040 22/15 Q1020
TAF DABC 172300Z 1800/1824 03012KT 9999 FEW033 
     TEMPO 1811/1821 FEW030TCU SCT100 
     PROB30 
     TEMPO 1813/1820 5000 -TSRA FEW030CB BKN050
       
DAAG 180230Z 08002KT 4000 BR FEW013 24/23 Q1016
TAF DAAG 172300Z 1800/1824 02004KT 9999 FEW016 
     PROB40 
     TEMPO 1800/1806 5000 BR BKN013 
     BECMG 1808/1811 35010KT 
     PROB30 
     TEMPO 1815/1820 FEW023TCU 
     BECMG 1821/1824 VRB02KT
       
DAAJ 180200Z 08007KT CAVOK 27/04 Q1016
TAF DAAJ 172300Z 1800/1824 06012KT CAVOK 
     PROB30 
     TEMPO 1800/1804 06022KT 4000 DRSA 
     BECMG 1804/1807 VRB02KT 
     BECMG 1815/1818 06012KT
       
DAUE 180200Z 10006KT CAVOK 33/11 Q1013
DAUO 180200Z 10006KT 9999 FEW030 SCT200 29/10 Q1014
TAF DAUO 180200Z 1803/1812 10008KT 9999 FEW030 SCT200
       
DAUG 180200Z 06005KT CAVOK 31/07 Q1016
TAF DAUG 172300Z 1800/1824 10010KT 9999 FEW046
       
DAUH 180230Z 05005KT CAVOK 32/06 Q1013
TAF DAUH 172300Z 1800/1824 08010KT 9999 FEW046
       
DAAP 180200Z 12005KT CAVOK 27/10 Q1013
TAF DAAP 180200Z 1803/1812 10008KT CAVOK
       
DAUZ 180200Z 07008KT CAVOK 26/02 Q1014
TAF DAUZ 172300Z 1800/1824 08012KT CAVOK
       
TAF DAUI 172300Z 1800/1824 08014KT CAVOK 
     PROB30 1802/1808 3000 HZ 
     PROB30 
     TEMPO 1815/1820 06015G25KT 5000 DRSA FEW046TCU
       
DAAV 180200Z 16002KT 8000 FEW016 25/23 Q1016
TAF DAAV 172300Z 1800/1824 32012KT 7000 FEW016 SCT030 
     PROB40 
     TEMPO 1800/1806 FEW023TCU 
     PROB30 
     TEMPO 1800/1805 5000 -TSRA FEW026CB BKN030 
     PROB30 
     TEMPO 1800/1806 VRB02KT 3000 BR FEW008 
     BECMG 1807/1809 36010KT
       
DAUL 180200Z 04008KT CAVOK 27/11 Q1019
TAF DAUL 180200Z 1803/1812 04008KT 9999 FEW033 
     BECMG 1808/1811 14014KT
       
DAOV 180200Z 00000KT CAVOK 22/18 Q1018
TAF DAOV 172300Z 1800/1809 VRB02KT CAVOK 
     PROB40 
     TEMPO 1805/1809 3000 BR NSC
       
DAAY 172300Z 35012KT 8000 FEW030 28/14 Q1025
TAF DAAY 172300Z 1800/1809 03010KT 8000 FEW030 
     BECMG 1806/1808 VRB02KT
       
DAOO 180230Z 00000KT 8000 FEW023 24/22 Q1016
TAF DAOO 172300Z 1800/1824 VRB02KT 6000 SCT010 
     TEMPO 1800/1808 2000 BR 
     TEMPO 1803/1808 0500 FG BKN010 
     BECMG 1810/1812 9999 FEW026 
     BECMG 1812/1814 01010KT CAVOK
       
DAOL 172300Z 07010KT CAVOK 25/25 Q1017
DAUU 180200Z 08010KT CAVOK 33/05 Q1012
TAF DAUU 180200Z 1803/1812 09012KT 9999 FEW046 SCT200
       
DAAS 180200Z 02004KT CAVOK 22/16 Q1022
TAF DAAS 172300Z 1800/1824 05010KT 9999 FEW030 
     PROB30 
     TEMPO 1800/1806 5000 -TSRA FEW026CB SCT030 
     TEMPO 1812/1823 FEW023TCU SCT100 
     BECMG 1810/1812 28010KT
       
DAAT 180230Z 10011KT CAVOK 26/M00 Q1018
TAF DAAT 172300Z 1800/1824 10012KT CAVOK 
     PROB40 1808/1812 12015G25KT 
     PROB40 
     TEMPO 1816/1820 FEW040CB SCT046TCU
       
DABS 180200Z 00000KT 9999 FEW040 20/16 Q1022
TAF DABS 172300Z 1800/1824 16005KT 9999 FEW040 
     BECMG 1807/1809 33010KT 
     TEMPO 1809/1821 FEW030TCU SCT100 
     PROB30 
     TEMPO 1809/1817 5000 -TSRA FEW023CB BKN030
       
DAOB 180200Z 00000KT CAVOK 21/16 Q1022
TAF DAOB 172300Z 1800/1824 VRB02KT 9999 FEW026 
     BECMG 1809/1812 23010KT 
     BECMG 1814/1817 32012KT
       
DAUT 180200Z 06010KT CAVOK 34/07 Q1011
TAF DAUT 180200Z 1803/1812 08010KT CAVOK
       
DAOF 180200Z 32009KT CAVOK 32/03 Q1010
TAF DAOF 180200Z 1803/1812 32010KT CAVOK 
     BECMG 1808/1812 11012KT
       
DAON 180230Z 00000KT 6000 SCT010 21/20 Q1017
TAF DAON 172300Z 1800/1824 VRB02KT 9999 FEW020 
     BECMG 1801/1804 8000 SCT010 
     TEMPO 1802/1809 3000 BR 
     TEMPO 1804/1808 0500 FG BKN010 
     BECMG 1810/1812 CAVOK 
     BECMG 1812/1814 36010KT
       
DAUK 180200Z 09008KT CAVOK 31/16 Q1013
TAF DAUK 180200Z 1803/1812 10008KT 9999 FEW030 SCT200